Time;durP1;ratioP1;P1;durP2;ratioP2;P2;SDS_P1;SDS_P2;PMS_P1;PMS_P2;Temp;Humidity;BMP_temperature;BMP_pressure;BME280_temperature;BME280_humidity;BME280_pressure;Samples;Min_cycle;Max_cycle;Signal;HPM_P1;HPM_P2
2023/07/11 00:02:03;;;;;;;2.72;0.20;;;17.60;99.90;;;;;;5016478;28;20029;-76
2023/07/11 00:04:29;;;;;;;2.45;0.00;;;17.60;99.90;;;;;;5034160;28;20029;-76
2023/07/11 00:06:55;;;;;;;0.40;0.00;;;17.50;99.90;;;;;;5034185;28;20021;-76
2023/07/11 00:09:22;;;;;;;1.05;0.00;;;17.50;99.90;;;;;;5034101;28;20033;-76
2023/07/11 00:11:47;;;;;;;0.95;0.10;;;17.50;99.90;;;;;;5016373;28;20025;-76
2023/07/11 00:14:13;;;;;;;2.15;0.00;;;17.50;99.90;;;;;;5034165;28;20473;-76
2023/07/11 00:16:38;;;;;;;4.35;0.95;;;17.50;99.90;;;;;;5034572;28;20100;-76
2023/07/11 00:19:04;;;;;;;1.55;0.50;;;17.80;99.90;;;;;;5016165;28;20029;-76
2023/07/11 00:21:29;;;;;;;2.10;0.00;;;17.40;99.90;;;;;;5034008;28;20113;-76
2023/07/11 00:24:03;;;;;;;1.52;0.00;;;17.40;99.90;;;;;;5033924;28;20041;-76
2023/07/11 00:26:29;;;;;;;3.75;0.30;;;17.40;99.90;;;;;;5034412;28;20017;-76
2023/07/11 00:28:55;;;;;;;2.10;0.08;;;17.40;99.90;;;;;;5034306;28;20075;-76
2023/07/11 00:31:20;;;;;;;1.33;0.20;;;17.40;99.90;;;;;;5033799;28;20018;-76
2023/07/11 00:33:46;;;;;;;0.32;0.10;;;17.30;99.90;;;;;;5016038;28;20036;-76
2023/07/11 00:36:11;;;;;;;3.05;0.22;;;17.30;99.90;;;;;;5034208;28;20022;-76
2023/07/11 00:38:37;;;;;;;1.83;0.15;;;17.30;99.90;;;;;;5033674;28;20515;-76
2023/07/11 00:41:06;;;;;;;4.88;0.45;;;17.30;99.90;;;;;;5033611;28;20021;-76
2023/07/11 00:43:31;;;;;;;0.38;0.00;;;17.30;99.90;;;;;;5033419;28;20029;-76
2023/07/11 00:46:18;;;;;;;0.77;0.00;;;17.20;99.90;;;;;;5033542;28;20311;-76
2023/07/11 00:48:57;;;;;;;1.30;0.00;;;17.20;99.90;;;;;;5033455;28;20040;-76
2023/07/11 00:51:35;;;;;;;0.82;0.00;;;17.20;99.90;;;;;;5033684;28;20072;-76
2023/07/11 00:54:04;;;;;;;4.80;0.15;;;17.20;99.90;;;;;;5033956;28;20053;-75
2023/07/11 00:56:38;;;;;;;1.90;0.32;;;17.20;99.90;;;;;;5033336;28;20555;-75
2023/07/11 00:59:04;;;;;;;1.35;0.20;;;17.20;99.90;;;;;;5033438;28;20064;-75
2023/07/11 01:01:30;;;;;;;0.82;0.05;;;17.10;99.90;;;;;;5033347;28;20505;-75
2023/07/11 01:03:56;;;;;;;2.65;0.00;;;17.10;99.90;;;;;;5015272;28;20030;-75
2023/07/11 01:06:25;;;;;;;3.15;0.30;;;17.10;99.90;;;;;;5033356;28;20561;-75
2023/07/11 01:08:53;;;;;;;2.05;0.32;;;17.10;99.90;;;;;;5015061;28;20070;-75
2023/07/11 01:11:20;;;;;;;0.73;0.20;;;17.00;99.90;;;;;;5015022;28;20087;-75
2023/07/11 01:13:46;;;;;;;1.85;0.10;;;17.00;99.90;;;;;;5033073;28;20635;-75
2023/07/11 01:16:11;;;;;;;0.90;0.08;;;17.00;99.90;;;;;;5033680;28;20021;-75
2023/07/11 01:18:37;;;;;;;1.33;0.00;;;17.10;99.90;;;;;;5033168;28;20525;-75
2023/07/11 01:21:04;;;;;;;1.02;0.00;;;17.00;99.90;;;;;;5015603;28;20039;-75
2023/07/11 01:23:31;;;;;;;1.55;0.32;;;17.00;99.90;;;;;;5015332;28;20022;-75
2023/07/11 01:26:06;;;;;;;4.13;0.35;;;17.00;99.90;;;;;;5033167;28;20029;-75
2023/07/11 01:28:32;;;;;;;3.50;0.10;;;17.00;99.90;;;;;;5015460;28;20400;-76
2023/07/11 01:30:57;;;;;;;1.60;0.10;;;17.00;99.90;;;;;;5033103;28;20025;-76
2023/07/11 01:33:25;;;;;;;1.65;0.25;;;16.90;99.90;;;;;;5015199;28;20477;-75
2023/07/11 01:35:54;;;;;;;1.67;0.20;;;17.00;99.90;;;;;;5015220;28;20030;-75
2023/07/11 01:38:21;;;;;;;0.80;0.00;;;17.00;99.90;;;;;;5015254;28;20075;-75
2023/07/11 01:40:48;;;;;;;0.65;0.10;;;17.00;99.90;;;;;;5032997;28;20025;-75
2023/07/11 01:43:23;;;;;;;0.77;0.10;;;17.00;99.90;;;;;;5014906;28;20037;-75
2023/07/11 01:45:49;;;;;;;3.72;0.00;;;16.90;99.90;;;;;;5015242;28;20022;-75
2023/07/11 01:48:14;;;;;;;1.70;0.15;;;17.10;99.90;;;;;;5033293;28;20112;-75
2023/07/11 01:50:40;;;;;;;2.45;0.10;;;17.10;99.90;;;;;;5015141;28;20040;-75
2023/07/11 01:53:05;;;;;;;1.52;0.08;;;17.00;99.90;;;;;;5032689;28;20018;-75
2023/07/11 01:55:31;;;;;;;1.80;0.22;;;17.10;99.90;;;;;;5032854;28;20107;-75
2023/07/11 01:57:57;;;;;;;1.77;0.00;;;17.30;99.90;;;;;;5015204;28;20032;-75
2023/07/11 02:00:22;;;;;;;1.08;0.00;;;17.20;99.90;;;;;;5033071;28;20038;-75
2023/07/11 02:02:48;;;;;;;1.05;0.00;;;17.20;99.90;;;;;;5032694;28;20108;-75
2023/07/11 02:05:14;;;;;;;1.65;0.00;;;17.20;99.90;;;;;;5032850;28;20131;-75
2023/07/11 02:07:41;;;;;;;1.95;0.22;;;17.10;99.90;;;;;;5032705;28;20026;-75
2023/07/11 02:10:07;;;;;;;1.15;0.00;;;17.10;99.90;;;;;;5032680;28;20024;-76
2023/07/11 02:12:33;;;;;;;2.10;0.00;;;17.20;99.90;;;;;;5032626;28;20017;-76
2023/07/11 02:14:59;;;;;;;0.80;0.40;;;17.10;99.90;;;;;;5032508;28;20424;-75
2023/07/11 02:17:25;;;;;;;2.95;0.10;;;17.10;99.90;;;;;;5032493;28;20022;-75
2023/07/11 02:19:51;;;;;;;1.35;0.00;;;17.10;99.90;;;;;;5032582;28;20010;-75
2023/07/11 02:22:16;;;;;;;2.53;0.10;;;17.00;99.90;;;;;;5035265;28;20473;-75
2023/07/11 02:24:42;;;;;;;2.75;0.28;;;17.10;99.90;;;;;;5036112;28;20156;-75
2023/07/11 02:27:08;;;;;;;0.85;0.03;;;17.00;99.90;;;;;;5036444;28;20022;-75
2023/07/11 02:29:34;;;;;;;1.17;0.00;;;17.00;99.90;;;;;;5036000;28;20392;-75
2023/07/11 02:32:00;;;;;;;1.20;0.00;;;17.00;99.90;;;;;;5036647;28;20469;-75
2023/07/11 02:34:25;;;;;;;2.25;0.10;;;17.00;99.90;;;;;;5035948;28;20025;-75
2023/07/11 02:36:51;;;;;;;2.33;0.13;;;17.00;99.90;;;;;;5036033;28;20072;-76
2023/07/11 02:39:17;;;;;;;2.08;0.40;;;16.90;99.90;;;;;;5018150;28;20029;-75
2023/07/11 02:41:42;;;;;;;3.05;0.35;;;17.00;99.90;;;;;;5035796;28;20028;-76
2023/07/11 02:44:08;;;;;;;1.83;0.20;;;17.00;99.90;;;;;;5035752;28;20042;-75
2023/07/11 02:46:34;;;;;;;2.20;0.00;;;17.00;99.90;;;;;;5036081;28;20033;-75
2023/07/11 02:49:00;;;;;;;0.60;0.00;;;17.00;99.90;;;;;;5035716;28;20377;-75
2023/07/11 02:51:25;;;;;;;1.77;0.17;;;16.90;99.90;;;;;;5036186;28;20022;-75
2023/07/11 02:53:51;;;;;;;0.93;0.22;;;16.90;99.90;;;;;;5035543;28;20017;-76
2023/07/11 02:56:19;;;;;;;1.08;0.00;;;16.90;99.90;;;;;;5036152;28;20056;-75
2023/07/11 02:58:45;;;;;;;0.23;0.00;;;16.80;99.90;;;;;;5035519;28;20056;-75
2023/07/11 03:01:11;;;;;;;2.15;0.00;;;16.80;99.90;;;;;;5035731;28;20056;-75
2023/07/11 03:03:37;;;;;;;1.95;0.00;;;16.80;99.90;;;;;;5035594;28;20057;-75
2023/07/11 03:06:02;;;;;;;1.05;0.00;;;16.70;99.90;;;;;;5035407;28;20405;-75
2023/07/11 03:08:28;;;;;;;0.93;0.00;;;16.80;99.90;;;;;;5035279;28;20074;-75
2023/07/11 03:10:57;;;;;;;4.88;0.03;;;16.80;99.90;;;;;;5035355;28;20056;-75
2023/07/11 03:13:23;;;;;;;3.50;0.30;;;17.20;99.90;;;;;;5035253;28;20017;-75
2023/07/11 03:15:48;;;;;;;0.25;0.00;;;16.80;99.90;;;;;;5017543;28;20022;-75
2023/07/11 03:18:14;;;;;;;3.70;0.10;;;16.80;99.90;;;;;;5035576;28;20075;-75
2023/07/11 03:20:41;;;;;;;0.82;0.05;;;16.80;99.90;;;;;;5035227;28;20079;-75
2023/07/11 03:23:12;;;;;;;3.55;0.00;;;16.80;99.90;;;;;;5035023;28;20049;-75
2023/07/11 03:25:38;;;;;;;2.08;0.10;;;16.80;99.90;;;;;;5035074;28;20040;-75
2023/07/11 03:28:04;;;;;;;1.80;0.10;;;16.70;99.90;;;;;;5034930;28;20033;-74
2023/07/11 03:30:31;;;;;;;4.53;0.13;;;16.90;99.90;;;;;;5035493;28;20032;-74
2023/07/11 03:32:56;;;;;;;1.17;0.10;;;16.60;99.90;;;;;;5034367;28;20116;-75
2023/07/11 03:35:22;;;;;;;2.05;0.20;;;16.60;99.90;;;;;;5034865;28;20045;-75
2023/07/11 03:37:47;;;;;;;0.85;0.10;;;16.70;99.90;;;;;;5034797;28;20420;-75
2023/07/11 03:40:14;;;;;;;2.03;0.32;;;16.70;99.90;;;;;;5034707;28;20154;-75
2023/07/11 03:42:39;;;;;;;4.07;0.20;;;16.70;99.90;;;;;;5034570;28;20021;-75
2023/07/11 03:45:06;;;;;;;0.65;0.00;;;16.80;99.90;;;;;;5034844;28;20036;-75
2023/07/11 03:47:31;;;;;;;2.50;0.30;;;16.70;99.90;;;;;;5034437;28;20021;-75
2023/07/11 03:49:57;;;;;;;3.60;0.43;;;16.60;99.90;;;;;;5016929;28;20021;-75
2023/07/11 03:52:22;;;;;;;1.45;0.30;;;16.50;99.90;;;;;;5034447;28;20021;-75
2023/07/11 03:54:48;;;;;;;0.93;0.20;;;16.60;99.90;;;;;;5034475;28;20022;-75
2023/07/11 03:57:15;;;;;;;1.48;0.10;;;16.60;99.90;;;;;;5016717;28;20037;-74
2023/07/11 03:59:41;;;;;;;2.88;0.15;;;16.50;99.90;;;;;;5034452;28;20048;-75
2023/07/11 04:02:07;;;;;;;3.13;0.10;;;16.50;99.90;;;;;;5034411;28;20473;-75
2023/07/11 04:04:33;;;;;;;5.05;0.20;;;16.50;99.90;;;;;;5034390;28;20538;-75
2023/07/11 04:06:58;;;;;;;1.13;0.28;;;16.50;99.90;;;;;;5016540;28;20031;-75
2023/07/11 04:09:24;;;;;;;4.53;0.40;;;16.50;99.90;;;;;;5034665;28;20037;-75
2023/07/11 04:11:49;;;;;;;4.00;0.32;;;16.60;99.90;;;;;;5034195;28;20465;-75
2023/07/11 04:14:18;;;;;;;0.77;0.20;;;16.60;99.90;;;;;;5016631;28;20025;-75
2023/07/11 04:16:43;;;;;;;3.70;0.20;;;16.60;99.90;;;;;;5016378;28;20021;-74
2023/07/11 04:19:09;;;;;;;1.63;0.20;;;16.70;99.90;;;;;;5034072;28;20393;-75
2023/07/11 04:21:35;;;;;;;1.02;0.20;;;16.70;99.90;;;;;;5033944;28;20036;-75
2023/07/11 04:24:01;;;;;;;2.70;0.10;;;17.00;99.90;;;;;;5016110;28;20021;-75
2023/07/11 04:26:27;;;;;;;2.33;0.20;;;16.80;99.90;;;;;;5033953;28;20064;-74
2023/07/11 04:28:52;;;;;;;2.67;0.30;;;16.90;99.90;;;;;;5016202;28;20022;-74
2023/07/11 04:31:18;;;;;;;3.58;0.28;;;16.90;99.90;;;;;;5033909;28;20032;-74
2023/07/11 04:33:43;;;;;;;1.58;0.63;;;17.20;99.90;;;;;;5033755;28;20099;-74
2023/07/11 04:36:11;;;;;;;2.13;0.82;;;17.20;99.90;;;;;;5033854;28;20021;-77
2023/07/11 04:38:37;;;;;;;2.30;1.45;;;17.20;99.90;;;;;;5016466;28;20021;-76
2023/07/11 04:41:04;;;;;;;5.20;1.40;;;17.40;99.90;;;;;;5034064;28;20117;-77
2023/07/11 04:43:30;;;;;;;8.27;2.05;;;17.40;99.90;;;;;;5016397;28;20044;-77
2023/07/11 04:45:57;;;;;;;7.03;1.98;;;17.50;99.90;;;;;;5033356;28;20108;-77
2023/07/11 04:48:23;;;;;;;4.57;2.20;;;17.50;99.90;;;;;;5034177;28;20481;-77
2023/07/11 04:50:48;;;;;;;3.55;1.65;;;17.60;99.90;;;;;;5033901;28;20028;-77
2023/07/11 04:53:14;;;;;;;3.42;1.77;;;17.60;99.90;;;;;;5016727;28;20030;-77
2023/07/11 04:55:39;;;;;;;4.85;2.67;;;17.80;99.90;;;;;;5033928;28;20523;-76
2023/07/11 04:58:05;;;;;;;5.88;2.55;;;17.80;99.90;;;;;;5034073;28;20037;-77
2023/07/11 05:00:30;;;;;;;4.32;2.10;;;17.90;99.90;;;;;;5034167;28;20130;-77
2023/07/11 05:02:56;;;;;;;4.97;2.00;;;17.90;99.90;;;;;;5033517;28;20401;-77
2023/07/11 05:05:22;;;;;;;5.90;3.33;;;18.00;99.90;;;;;;5034197;28;20026;-77
2023/07/11 05:07:47;;;;;;;8.18;3.15;;;18.00;99.90;;;;;;5033603;28;20033;-77
2023/07/11 05:10:13;;;;;;;6.68;3.40;;;18.20;99.90;;;;;;5033448;28;20492;-77
2023/07/11 05:12:39;;;;;;;5.72;2.92;;;18.30;99.90;;;;;;5033397;28;20026;-76
2023/07/11 05:15:06;;;;;;;7.22;3.08;;;18.40;99.90;;;;;;5033147;28;20017;-76
2023/07/11 05:17:31;;;;;;;6.03;2.85;;;18.50;99.90;;;;;;5033076;28;20101;-76
2023/07/11 05:19:57;;;;;;;6.13;3.15;;;18.70;99.90;;;;;;5015492;28;20449;-77
2023/07/11 05:22:22;;;;;;;3.30;2.13;;;18.90;99.90;;;;;;5033126;28;20030;-76
2023/07/11 05:24:48;;;;;;;8.63;3.70;;;19.20;99.90;;;;;;5033163;28;20029;-76
2023/07/11 05:27:14;;;;;;;7.75;3.75;;;19.20;99.90;;;;;;5033175;28;20099;-76
2023/07/11 05:29:39;;;;;;;6.80;3.22;;;19.50;99.90;;;;;;5033610;28;20025;-76
2023/07/11 05:32:05;;;;;;;6.68;3.40;;;19.40;99.90;;;;;;5033565;28;20104;-76
2023/07/11 05:34:31;;;;;;;6.07;3.53;;;19.60;99.90;;;;;;5015971;28;20026;-77
2023/07/11 05:36:56;;;;;;;5.50;2.67;;;19.80;99.90;;;;;;5033458;28;20032;-77
2023/07/11 05:39:22;;;;;;;5.43;3.40;;;19.80;99.90;;;;;;5033484;28;20389;-76
2023/07/11 05:41:50;;;;;;;6.57;3.20;;;20.10;99.90;;;;;;5015203;28;20060;-77
2023/07/11 05:44:16;;;;;;;6.97;3.50;;;20.20;99.90;;;;;;5014995;28;20045;-76
2023/07/11 05:46:42;;;;;;;10.45;3.67;;;20.30;99.90;;;;;;5015272;28;20021;-76
2023/07/11 05:49:08;;;;;;;6.10;2.90;;;20.10;99.90;;;;;;5032826;28;20477;-76
2023/07/11 05:51:34;;;;;;;6.85;2.83;;;20.50;99.90;;;;;;5015132;28;20041;-76
2023/07/11 05:54:00;;;;;;;6.68;3.38;;;21.20;99.90;;;;;;5032747;28;20030;-76
2023/07/11 05:56:26;;;;;;;8.50;2.70;;;20.60;99.90;;;;;;5034333;28;20026;-76
2023/07/11 05:58:53;;;;;;;9.48;2.65;;;20.70;99.90;;;;;;5036661;28;20036;-76
2023/07/11 06:01:25;;;;;;;3.58;2.20;;;20.90;99.90;;;;;;5036574;28;20033;-76
2023/07/11 06:04:01;;;;;;;7.93;2.38;;;20.90;99.90;;;;;;5037050;28;20493;-76
2023/07/11 06:06:26;;;;;;;3.40;2.95;;;21.30;99.90;;;;;;5036528;28;20090;-76
2023/07/11 06:08:52;;;;;;;5.07;1.67;;;21.60;99.90;;;;;;5036316;28;20034;-76
2023/07/11 06:11:17;;;;;;;6.72;2.45;;;21.40;99.90;;;;;;5036423;28;20021;-76
2023/07/11 06:13:43;;;;;;;16.65;3.35;;;21.80;99.90;;;;;;5036716;28;20022;-76
2023/07/11 06:16:14;;;;;;;6.45;3.10;;;21.60;99.90;;;;;;5036379;28;20021;-76
2023/07/11 06:18:40;;;;;;;5.43;2.50;;;21.60;99.90;;;;;;5036688;28;20029;-76
2023/07/11 06:21:08;;;;;;;6.68;2.30;;;21.60;99.90;;;;;;5036473;28;20033;-76
2023/07/11 06:23:34;;;;;;;10.60;4.10;;;21.50;99.90;;;;;;5036188;28;20017;-76
2023/07/11 06:26:00;;;;;;;5.78;3.05;;;21.60;99.90;;;;;;5036113;28;20096;-76
2023/07/11 06:28:27;;;;;;;8.23;3.00;;;21.60;99.90;;;;;;5034710;28;20201;-76
2023/07/11 06:30:58;;;;;;;8.32;3.00;;;21.70;99.90;;;;;;5016569;28;20083;-76
2023/07/11 06:33:25;;;;;;;8.52;3.13;;;21.80;99.90;;;;;;5034784;28;20033;-76
2023/07/11 06:35:51;;;;;;;5.95;2.45;;;21.80;99.90;;;;;;5035990;28;20029;-76
2023/07/11 06:38:17;;;;;;;3.47;2.03;;;21.90;99.90;;;;;;5034835;28;20029;-76
2023/07/11 06:40:53;;;;;;;2.95;2.00;;;21.90;99.90;;;;;;5035909;28;20036;-76
2023/07/11 06:43:21;;;;;;;4.75;1.90;;;22.00;99.90;;;;;;5035771;28;20037;-76
2023/07/11 06:45:48;;;;;;;3.55;1.10;;;22.10;99.90;;;;;;5018495;28;20112;-77
2023/07/11 06:48:14;;;;;;;6.28;1.60;;;22.20;99.90;;;;;;5036380;28;20061;-76
2023/07/11 06:50:41;;;;;;;7.00;1.73;;;22.20;99.90;;;;;;5035740;28;20493;-75
2023/07/11 06:53:06;;;;;;;3.70;0.88;;;22.30;99.90;;;;;;5035474;28;20028;-76
2023/07/11 06:55:32;;;;;;;5.28;0.73;;;22.50;99.90;;;;;;5036092;28;20025;-76
2023/07/11 06:57:57;;;;;;;2.30;0.57;;;22.60;99.90;;;;;;5035602;28;20501;-76
2023/07/11 07:00:24;;;;;;;4.43;1.08;;;22.70;99.90;;;;;;5017829;28;20029;-76
2023/07/11 07:02:50;;;;;;;3.33;0.80;;;22.70;99.90;;;;;;5017590;28;20021;-76
2023/07/11 07:05:15;;;;;;;1.88;0.73;;;22.80;99.90;;;;;;5017629;28;20028;-76
2023/07/11 07:07:41;;;;;;;5.43;1.35;;;23.00;99.90;;;;;;5034822;28;20033;-76
2023/07/11 07:10:07;;;;;;;6.78;0.80;;;23.10;99.90;;;;;;5035901;28;20021;-76
2023/07/11 07:12:33;;;;;;;5.20;0.60;;;23.20;99.90;;;;;;5017581;28;20468;-76
2023/07/11 07:14:58;;;;;;;3.33;0.73;;;23.30;99.90;;;;;;5017478;28;20078;-76
2023/07/11 07:17:24;;;;;;;3.30;0.47;;;23.40;99.90;;;;;;5017497;28;20401;-76
2023/07/11 07:19:49;;;;;;;3.15;0.50;;;23.50;99.90;;;;;;5035163;28;20512;-76
2023/07/11 07:22:15;;;;;;;2.90;0.43;;;23.60;99.90;;;;;;5017299;28;20025;-76
2023/07/11 07:24:41;;;;;;;2.95;0.25;;;23.70;99.90;;;;;;5034980;28;20451;-75
2023/07/11 07:27:09;;;;;;;2.80;0.10;;;24.00;99.90;;;;;;5035613;28;20473;-76
2023/07/11 07:29:35;;;;;;;3.13;0.22;;;24.00;99.90;;;;;;5035405;28;20028;-76
2023/07/11 07:32:00;;;;;;;2.20;0.40;;;24.10;99.90;;;;;;5017240;28;20021;-76
2023/07/11 07:34:26;;;;;;;1.77;0.20;;;24.10;99.90;;;;;;5034801;28;20025;-76
2023/07/11 07:36:51;;;;;;;1.08;0.22;;;24.20;99.90;;;;;;5034866;28;20084;-76
2023/07/11 07:39:17;;;;;;;6.22;0.40;;;24.30;99.90;;;;;;5034791;28;20060;-76
2023/07/11 07:41:43;;;;;;;1.05;0.15;;;24.50;99.90;;;;;;5017011;28;20037;-76
2023/07/11 07:44:08;;;;;;;4.82;0.80;;;24.60;99.90;;;;;;5034580;28;20045;-76
2023/07/11 07:46:34;;;;;;;1.65;0.00;;;24.70;99.90;;;;;;5034695;28;20040;-76
2023/07/11 07:48:59;;;;;;;3.83;0.32;;;24.80;99.90;;;;;;5034531;28;20075;-76
2023/07/11 07:51:25;;;;;;;2.65;0.30;;;24.80;99.90;;;;;;5034488;28;20024;-76
2023/07/11 07:53:51;;;;;;;1.85;0.25;;;25.00;99.90;;;;;;5034416;28;20118;-76
2023/07/11 07:56:19;;;;;;;1.38;0.20;;;25.00;99.90;;;;;;5034973;28;20049;-76
2023/07/11 07:58:48;;;;;;;;;;;25.20;99.90;;;;;;5034756;28;20036;-76
2023/07/11 08:01:15;;;;;;;4.97;0.15;;;25.30;99.80;;;;;;5016714;28;20360;-75
2023/07/11 08:03:44;;;;;;;3.67;0.10;;;25.40;99.70;;;;;;5034328;28;20393;-76
2023/07/11 08:06:10;;;;;;;;;;;25.40;99.90;;;;;;5016926;28;20616;-76
2023/07/11 08:08:36;;;;;;;3.05;0.68;;;25.50;99.80;;;;;;5034648;28;19939;-76
2023/07/11 08:11:03;;;;;;;1.85;0.08;;;25.60;98.10;;;;;;5034250;28;20033;-76
2023/07/11 08:13:29;;;;;;;2.58;0.05;;;25.50;98.80;;;;;;5016328;28;20087;-75
2023/07/11 08:15:55;;;;;;;1.98;0.30;;;25.60;98.30;;;;;;5034111;28;20026;-76
2023/07/11 08:18:21;;;;;;;4.15;0.00;;;25.60;98.50;;;;;;5033998;28;20024;-76
2023/07/11 08:20:47;;;;;;;2.22;0.10;;;25.70;98.40;;;;;;5033977;28;20457;-76
2023/07/11 08:23:12;;;;;;;0.75;0.20;;;25.80;97.90;;;;;;5034600;28;20083;-76
2023/07/11 08:25:40;;;;;;;1.85;0.22;;;25.80;97.70;;;;;;5034534;28;20113;-76
2023/07/11 08:28:05;;;;;;;2.22;0.30;;;25.90;98.20;;;;;;5033841;28;20017;-76
2023/07/11 08:30:35;;;;;;;1.40;0.03;;;26.00;98.80;;;;;;5034126;28;20048;-76
2023/07/11 08:33:01;;;;;;;1.63;0.00;;;26.10;97.30;;;;;;5016371;28;20013;-76
2023/07/11 08:35:27;;;;;;;1.23;0.00;;;26.10;97.70;;;;;;5033812;28;20033;-76
2023/07/11 08:37:52;;;;;;;5.47;0.43;;;26.20;98.00;;;;;;5033741;28;20021;-75
2023/07/11 08:40:21;;;;;;;3.03;0.30;;;26.20;97.20;;;;;;5033636;28;20013;-76
2023/07/11 08:42:47;;;;;;;2.08;0.20;;;26.30;96.60;;;;;;5033363;28;20022;-76
2023/07/11 08:45:29;;;;;;;2.38;0.30;;;26.30;96.70;;;;;;5033604;28;20038;-76
2023/07/11 08:48:11;;;;;;;3.03;0.20;;;26.30;96.20;;;;;;5015837;28;20021;-76
2023/07/11 08:50:46;;;;;;;2.75;0.17;;;26.20;97.10;;;;;;5015809;28;20053;-76
2023/07/11 08:53:17;;;;;;;2.03;0.20;;;26.20;96.50;;;;;;5033420;28;20028;-76
2023/07/11 08:55:48;;;;;;;2.45;0.00;;;26.10;96.80;;;;;;5033933;28;20033;-76
2023/07/11 08:58:21;;;;;;;1.45;0.20;;;26.20;96.70;;;;;;5033356;28;20025;-76
2023/07/11 09:00:50;;;;;;;4.15;0.20;;;26.20;97.40;;;;;;5033967;28;20499;-76
2023/07/11 09:03:22;;;;;;;1.55;0.20;;;26.20;96.30;;;;;;5015522;28;20079;-76
2023/07/11 09:06:06;;;;;;;2.58;0.32;;;26.30;97.10;;;;;;5033336;28;20063;-76
2023/07/11 09:08:32;;;;;;;3.10;0.10;;;26.30;96.90;;;;;;5033825;28;20071;-76
2023/07/11 09:11:16;;;;;;;1.15;0.10;;;26.50;96.90;;;;;;5033256;28;20021;-76
2023/07/11 09:14:06;;;;;;;2.92;0.10;;;26.60;96.80;;;;;;5033267;28;20032;-76
2023/07/11 09:16:39;;;;;;;1.10;0.10;;;26.60;95.90;;;;;;5033122;28;20075;-76
2023/07/11 09:19:14;;;;;;;2.83;0.20;;;26.50;96.10;;;;;;5033191;28;20438;-76
2023/07/11 09:22:10;;;;;;;2.35;0.20;;;26.40;96.30;;;;;;5015402;28;20100;-76
2023/07/11 09:24:48;;;;;;;4.10;0.10;;;26.50;96.50;;;;;;5015366;28;20037;-76
2023/07/11 09:27:25;;;;;;;1.13;0.30;;;26.80;97.10;;;;;;5015326;28;20022;-76
2023/07/11 09:29:51;;;;;;;2.13;0.30;;;26.80;95.00;;;;;;5033568;28;20017;-76
2023/07/11 09:32:18;;;;;;;4.60;0.10;;;26.80;95.00;;;;;;5036134;28;20040;-76
2023/07/11 09:34:47;;;;;;;1.90;0.00;;;26.90;95.20;;;;;;5019342;28;20030;-76
2023/07/11 09:37:32;;;;;;;1.20;0.20;;;27.00;94.80;;;;;;5037212;28;20485;-76
2023/07/11 09:40:24;;;;;;;3.05;0.10;;;27.10;94.70;;;;;;5037647;28;20059;-76
2023/07/11 09:42:52;;;;;;;1.40;0.20;;;27.20;94.00;;;;;;5037289;28;20021;-76
2023/07/11 09:45:20;;;;;;;1.42;0.30;;;27.30;93.70;;;;;;5036996;28;20022;-76
2023/07/11 09:47:58;;;;;;;2.65;0.10;;;27.20;93.50;;;;;;5036900;28;20029;-76
2023/07/11 09:50:48;;;;;;;2.50;0.00;;;27.20;93.70;;;;;;5036931;28;20411;-76
2023/07/11 09:53:17;;;;;;;1.48;0.00;;;27.20;93.60;;;;;;5037233;28;20025;-76
2023/07/11 09:55:42;;;;;;;;;;;27.10;93.40;;;;;;5037055;28;20037;-76
2023/07/11 09:58:17;;;;;;;4.03;0.10;;;27.00;94.70;;;;;;5036665;28;19905;-76
2023/07/11 10:00:47;;;;;;;3.78;0.10;;;27.10;94.20;;;;;;5036755;28;20104;-76
2023/07/11 10:03:24;;;;;;;2.15;0.20;;;27.40;94.60;;;;;;5036605;28;20105;-75
2023/07/11 10:05:52;;;;;;;2.10;0.10;;;27.50;92.10;;;;;;5019786;28;20465;-76
2023/07/11 10:08:33;;;;;;;1.17;0.00;;;27.40;92.60;;;;;;5036576;28;20017;-76
2023/07/11 10:11:11;;;;;;;0.80;0.00;;;27.50;92.60;;;;;;5018729;28;20026;-75
2023/07/11 10:13:36;;;;;;;1.80;0.10;;;27.40;91.90;;;;;;5036728;28;20029;-76
2023/07/11 10:16:04;;;;;;;5.05;0.25;;;27.40;93.40;;;;;;5036361;28;20022;-76
2023/07/11 10:18:32;;;;;;;3.95;0.17;;;27.70;93.50;;;;;;5018591;28;20396;-76
2023/07/11 10:21:11;;;;;;;2.47;0.10;;;27.80;93.10;;;;;;5036270;28;20477;-76
2023/07/11 10:23:37;;;;;;;3.45;0.20;;;28.00;92.70;;;;;;5036401;28;20140;-76
2023/07/11 10:26:19;;;;;;;2.55;0.50;;;27.90;91.90;;;;;;5036092;28;20488;-76
2023/07/11 10:28:55;;;;;;;2.25;0.17;;;27.70;91.90;;;;;;5036020;28;20029;-76
2023/07/11 10:31:26;;;;;;;2.33;0.20;;;27.70;92.50;;;;;;5036628;28;20068;-76
2023/07/11 10:33:59;;;;;;;4.97;0.10;;;27.20;92.10;;;;;;5035814;28;20028;-75
2023/07/11 10:36:46;;;;;;;1.05;0.00;;;27.10;92.80;;;;;;5036262;28;20025;-75
2023/07/11 10:39:26;;;;;;;1.17;0.00;;;27.10;92.50;;;;;;5036009;28;20076;-76
2023/07/11 10:42:14;;;;;;;1.60;0.38;;;27.30;92.10;;;;;;5017714;28;20052;-76
2023/07/11 10:44:46;;;;;;;2.58;0.20;;;27.60;92.10;;;;;;5035635;28;20040;-76
2023/07/11 10:47:12;;;;;;;3.15;0.20;;;27.70;92.90;;;;;;5036384;28;20045;-76
2023/07/11 10:49:45;;;;;;;5.97;0.55;;;27.90;91.90;;;;;;5035624;28;20026;-76
2023/07/11 10:52:21;;;;;;;2.35;0.20;;;28.00;91.20;;;;;;5036043;28;20026;-76
2023/07/11 10:54:59;;;;;;;1.92;0.10;;;28.10;91.20;;;;;;5035902;28;20025;-76
2023/07/11 10:57:40;;;;;;;3.83;0.20;;;28.40;92.00;;;;;;5035633;28;20029;-76
2023/07/11 11:00:16;;;;;;;5.45;0.32;;;28.80;91.00;;;;;;5035655;28;20052;-76
2023/07/11 11:03:03;;;;;;;3.60;0.20;;;28.70;90.60;;;;;;5035520;28;20393;-76
2023/07/11 11:05:45;;;;;;;2.17;0.10;;;28.50;90.40;;;;;;5017661;28;20477;-76
2023/07/11 11:08:57;;;;;;;1.55;0.10;;;28.30;90.70;;;;;;5017629;28;20040;-76
2023/07/11 11:11:23;;;;;;;3.22;0.45;;;28.30;91.40;;;;;;5014994;28;20029;-75
2023/07/11 11:14:10;;;;;;;3.17;0.10;;;28.20;90.50;;;;;;5035518;28;20028;-76
2023/07/11 11:16:54;;;;;;;5.10;0.13;;;28.00;91.40;;;;;;5035342;28;20036;-76
2023/07/11 11:19:29;;;;;;;3.58;0.20;;;28.00;91.30;;;;;;5017412;28;20021;-76
2023/07/11 11:22:24;;;;;;;4.25;0.40;;;28.20;91.80;;;;;;5017375;28;20033;-75
2023/07/11 11:25:00;;;;;;;2.00;0.38;;;28.20;90.50;;;;;;5031184;28;20037;-76
2023/07/11 11:28:03;;;;;;;4.28;0.10;;;28.20;91.20;;;;;;5035549;28;20053;-76
2023/07/11 11:30:51;;;;;;;2.15;0.10;;;28.40;91.10;;;;;;5034949;28;20087;-76
2023/07/11 11:33:36;;;;;;;2.75;0.25;;;28.50;91.50;;;;;;5034853;28;20068;-76
2023/07/11 11:36:28;;;;;;;2.75;0.30;;;28.70;90.20;;;;;;5034958;28;20393;-76
2023/07/11 11:39:18;;;;;;;2.13;0.30;;;28.70;90.40;;;;;;5034870;28;20570;-76
2023/07/11 11:41:50;;;;;;;3.85;0.22;;;28.70;90.80;;;;;;5035389;28;20030;-76
2023/07/11 11:44:21;;;;;;;0.73;0.00;;;28.60;90.40;;;;;;5034807;28;20029;-76
2023/07/11 11:46:48;;;;;;;0.95;0.30;;;28.60;91.70;;;;;;5034636;28;20021;-76
2023/07/11 11:49:15;;;;;;;2.42;0.10;;;28.60;90.20;;;;;;5034496;28;20028;-76
2023/07/11 11:51:41;;;;;;;5.65;0.45;;;28.60;90.40;;;;;;5034577;28;20045;-75
2023/07/11 11:54:18;;;;;;;2.78;0.28;;;28.70;90.10;;;;;;5016287;28;20017;-76
2023/07/11 11:56:47;;;;;;;0.65;0.20;;;29.10;88.30;;;;;;5034643;28;20500;-76
2023/07/11 11:59:26;;;;;;;2.85;0.28;;;29.20;90.10;;;;;;5034440;28;20492;-76
2023/07/11 12:01:55;;;;;;;2.75;0.20;;;29.30;88.70;;;;;;5016669;28;20026;-75
2023/07/11 12:04:27;;;;;;;4.40;0.38;;;29.20;89.20;;;;;;5016502;28;20029;-76
2023/07/11 12:07:01;;;;;;;3.60;0.20;;;28.90;89.70;;;;;;5034291;28;20060;-76
2023/07/11 12:09:38;;;;;;;4.35;0.52;;;28.80;89.20;;;;;;5034231;28;20384;-76
2023/07/11 12:12:18;;;;;;;5.13;0.20;;;28.70;90.00;;;;;;5034174;28;20547;-76
2023/07/11 12:14:49;;;;;;;4.05;0.68;;;28.80;89.80;;;;;;5034012;28;20026;-76
2023/07/11 12:17:33;;;;;;;3.90;0.00;;;29.00;89.20;;;;;;5034681;28;20025;-76
2023/07/11 12:20:02;;;;;;;4.88;0.47;;;29.10;90.40;;;;;;5033989;28;20029;-76
2023/07/11 12:22:50;;;;;;;2.60;0.35;;;29.10;90.00;;;;;;5033965;28;20025;-76
2023/07/11 12:25:30;;;;;;;2.22;0.15;;;29.70;90.20;;;;;;4997989;28;20471;-76
2023/07/11 12:28:01;;;;;;;5.15;0.75;;;29.90;88.90;;;;;;5034809;28;20064;-76
2023/07/11 12:30:27;;;;;;;1.73;0.20;;;30.40;88.70;;;;;;5034441;28;20017;-76
2023/07/11 12:32:55;;;;;;;4.45;0.40;;;30.60;85.90;;;;;;5033870;28;20036;-76
2023/07/11 12:35:24;;;;;;;1.55;0.15;;;30.40;86.70;;;;;;5033800;28;20370;-76
2023/07/11 12:38:04;;;;;;;1.23;0.32;;;30.30;87.10;;;;;;5033720;28;20018;-76
2023/07/11 12:40:29;;;;;;;1.25;0.10;;;30.40;88.60;;;;;;5016329;28;20067;-76
2023/07/11 12:43:00;;;;;;;3.67;0.30;;;30.50;89.20;;;;;;5033491;28;20049;-76
2023/07/11 12:45:35;;;;;;;0.57;0.10;;;30.80;88.20;;;;;;5015950;28;20018;-76
2023/07/11 12:48:14;;;;;;;4.45;0.50;;;31.00;85.90;;;;;;5034297;28;20029;-76
2023/07/11 12:50:53;;;;;;;3.95;0.43;;;31.00;84.90;;;;;;5033514;28;20056;-76
2023/07/11 12:53:19;;;;;;;0.43;0.00;;;31.10;83.20;;;;;;5015806;28;20029;-76
2023/07/11 12:55:48;;;;;;;1.42;0.30;;;31.20;88.00;;;;;;5015803;28;20034;-76
2023/07/11 12:58:21;;;;;;;4.72;0.10;;;31.10;84.20;;;;;;5015891;28;20025;-76
2023/07/11 13:00:48;;;;;;;2.05;0.10;;;31.10;83.20;;;;;;5033300;28;20029;-76